createdAt,value
2022-11-15T00:00:10.356Z,97975.00
2022-11-15T00:00:19.367Z,97979.00
2022-11-15T00:00:29.368Z,97979.00
2022-11-15T00:00:40.314Z,97981.00
2022-11-15T00:00:50.825Z,97985.00
2022-11-15T00:01:00.786Z,97975.00
2022-11-15T00:01:09.344Z,97977.00
2022-11-15T00:01:19.356Z,97979.00
2022-11-15T00:01:30.832Z,97977.00
2022-11-15T00:01:39.384Z,97977.00
2022-11-15T00:01:49.385Z,97983.00
2022-11-15T00:02:00.909Z,97973.00
2022-11-15T00:02:09.347Z,97977.00
2022-11-15T00:02:19.391Z,97981.00
2022-11-15T00:02:29.345Z,97981.00
2022-11-15T00:02:39.354Z,97979.00
2022-11-15T00:02:49.367Z,97981.00
2022-11-15T00:02:59.398Z,97981.00
2022-11-15T00:03:09.435Z,97977.00
2022-11-15T00:03:19.316Z,97977.00
2022-11-15T00:03:29.585Z,97979.00
2022-11-15T00:03:39.437Z,97977.00
2022-11-15T00:03:49.368Z,97977.00
2022-11-15T00:04:00.766Z,97983.00
2022-11-15T00:04:09.327Z,97981.00
2022-11-15T00:04:20.806Z,97981.00
2022-11-15T00:04:29.327Z,97985.00
2022-11-15T00:04:39.448Z,97983.00
2022-11-15T00:04:49.426Z,97983.00
2022-11-15T00:04:59.308Z,97985.00
2022-11-15T00:05:09.379Z,97981.00
2022-11-15T00:05:19.317Z,97981.00
2022-11-15T00:05:29.317Z,97981.00
2022-11-15T00:05:39.347Z,97981.00
2022-11-15T00:05:49.298Z,97981.00
2022-11-15T00:05:59.315Z,97979.00
2022-11-15T00:06:09.352Z,97981.00
2022-11-15T00:06:19.387Z,97981.00
2022-11-15T00:06:29.378Z,97981.00
2022-11-15T00:06:39.358Z,97981.00
2022-11-15T00:06:49.430Z,97983.00
2022-11-15T00:06:59.505Z,97983.00
2022-11-15T00:07:14.888Z,97981.00
2022-11-15T00:07:48.337Z,97981.00
2022-11-15T00:07:54.167Z,97981.00
2022-11-15T00:07:55.309Z,97981.00
2022-11-15T00:07:56.028Z,97979.00
2022-11-15T00:08:03.089Z,97979.00
2022-11-15T00:08:12.186Z,97979.00
2022-11-15T00:08:22.158Z,97981.00
2022-11-15T00:08:32.887Z,97981.00
2022-11-15T00:08:43.557Z,97983.00
2022-11-15T00:08:52.100Z,97983.00
2022-11-15T00:09:03.553Z,97981.00
2022-11-15T00:09:13.078Z,97985.00
2022-11-15T00:09:22.104Z,97979.00
2022-11-15T00:09:33.557Z,97983.00
2022-11-15T00:09:46.120Z,97972.00
2022-11-15T00:09:52.118Z,97972.00
2022-11-15T00:10:03.557Z,97981.00
2022-11-15T00:10:13.758Z,97979.00
2022-11-15T00:10:23.528Z,97977.00
2022-11-15T00:10:32.949Z,97979.00
2022-11-15T00:10:43.539Z,97979.00
2022-11-15T00:10:52.268Z,97975.00
2022-11-15T00:11:02.142Z,97977.00
2022-11-15T00:11:12.073Z,97979.00
2022-11-15T00:11:23.548Z,97979.00
2022-11-15T00:11:32.079Z,97979.00
2022-11-15T00:11:42.179Z,97981.00
2022-11-15T00:11:52.080Z,97979.00
2022-11-15T00:12:03.539Z,97979.00
2022-11-15T00:12:12.087Z,97979.00
2022-11-15T00:12:22.097Z,97983.00
2022-11-15T00:12:32.109Z,97977.00
2022-11-15T00:12:42.098Z,97981.00
2022-11-15T00:12:53.539Z,97979.00
2022-11-15T00:13:02.069Z,97977.00
2022-11-15T00:13:13.518Z,97979.00
2022-11-15T00:13:22.249Z,97979.00
2022-11-15T00:13:33.259Z,97979.00
2022-11-15T00:13:43.519Z,97973.00
2022-11-15T00:13:52.069Z,97970.00
2022-11-15T00:14:02.868Z,97973.00
2022-11-15T00:14:13.520Z,97975.00
2022-11-15T00:14:22.062Z,97979.00
2022-11-15T00:14:32.071Z,97973.00
2022-11-15T00:14:42.790Z,97979.00
2022-11-15T00:14:53.501Z,97977.00
2022-11-15T00:15:02.767Z,97972.00
2022-11-15T00:15:12.797Z,97975.00
2022-11-15T00:15:22.044Z,97975.00
2022-11-15T00:15:32.076Z,97973.00
2022-11-15T00:15:42.789Z,97973.00
2022-11-15T00:15:52.830Z,97970.00
2022-11-15T00:16:02.051Z,97973.00
2022-11-15T00:16:12.802Z,97975.00
2022-11-15T00:16:22.842Z,97975.00
2022-11-15T00:16:32.873Z,97975.00
2022-11-15T00:16:42.801Z,97975.00
2022-11-15T00:16:52.841Z,97975.00
2022-11-15T00:17:02.879Z,97973.00
2022-11-15T00:17:12.910Z,97972.00
2022-11-15T00:17:22.940Z,97977.00
2022-11-15T00:17:32.031Z,97975.00
2022-11-15T00:17:42.918Z,97975.00
2022-11-15T00:17:52.968Z,97973.00
2022-11-15T00:18:02.889Z,97975.00
2022-11-15T00:18:12.501Z,97972.00
2022-11-15T00:18:22.969Z,97973.00
2022-11-15T00:18:33.480Z,97973.00
2022-11-15T00:18:47.777Z,97973.00
2022-11-15T00:18:53.451Z,97972.00
2022-11-15T00:19:04.219Z,97968.00
2022-11-15T00:19:12.681Z,97972.00
2022-11-15T00:19:23.953Z,97968.00
2022-11-15T00:19:33.170Z,97968.00
2022-11-15T00:19:43.947Z,97975.00
2022-11-15T00:19:52.518Z,97973.00
2022-11-15T00:20:02.511Z,97973.00
2022-11-15T00:20:12.489Z,97972.00
2022-11-15T00:20:22.500Z,97970.00
2022-11-15T00:20:33.950Z,97975.00
2022-11-15T00:20:43.940Z,97970.00
2022-11-15T00:20:53.961Z,97975.00
2022-11-15T00:21:03.935Z,97973.00
2022-11-15T00:21:13.042Z,97970.00
2022-11-15T00:21:22.472Z,97972.00
2022-11-15T00:21:33.933Z,97973.00
2022-11-15T00:21:43.931Z,97972.00
2022-11-15T00:21:52.497Z,97972.00
2022-11-15T00:22:03.963Z,97972.00
2022-11-15T00:22:12.662Z,97973.00
2022-11-15T00:22:23.931Z,97970.00
2022-11-15T00:22:33.941Z,97972.00
2022-11-15T00:22:43.061Z,97973.00
2022-11-15T00:22:53.241Z,97972.00
2022-11-15T00:23:03.115Z,97970.00
2022-11-15T00:23:13.159Z,97970.00
2022-11-15T00:23:22.980Z,97970.00
2022-11-15T00:23:33.431Z,97970.00
2022-11-15T00:23:43.151Z,97968.00
2022-11-15T00:23:52.681Z,97970.00
2022-11-15T00:24:03.221Z,97973.00
2022-11-15T00:24:13.170Z,97970.00
2022-11-15T00:24:23.192Z,97972.00
2022-11-15T00:24:33.233Z,97970.00
2022-11-15T00:24:43.262Z,97968.00
2022-11-15T00:24:52.474Z,97968.00
2022-11-15T00:25:03.231Z,97970.00
2022-11-15T00:25:13.272Z,97966.00
2022-11-15T00:25:23.302Z,97972.00
2022-11-15T00:25:32.461Z,97968.00
2022-11-15T00:25:43.282Z,97968.00
2022-11-15T00:25:53.002Z,97970.00
2022-11-15T00:26:03.905Z,97968.00
2022-11-15T00:26:13.913Z,97970.00
2022-11-15T00:26:23.309Z,97966.00
2022-11-15T00:26:33.892Z,97970.00
2022-11-15T00:26:43.901Z,97966.00
2022-11-15T00:26:53.901Z,97972.00
2022-11-15T00:27:07.879Z,97973.00
2022-11-15T00:27:14.239Z,97966.00
2022-11-15T00:27:24.233Z,97970.00
2022-11-15T00:27:32.793Z,97970.00
2022-11-15T00:27:42.802Z,97972.00
2022-11-15T00:27:54.285Z,97972.00
2022-11-15T00:28:03.365Z,97972.00
2022-11-15T00:28:13.418Z,97970.00
2022-11-15T00:28:24.212Z,97972.00
2022-11-15T00:28:33.360Z,97972.00
2022-11-15T00:28:43.394Z,97970.00
2022-11-15T00:28:53.033Z,97968.00
2022-11-15T00:29:03.466Z,97968.00
2022-11-15T00:29:13.400Z,97968.00
2022-11-15T00:29:23.434Z,97970.00
2022-11-15T00:29:33.470Z,97970.00
2022-11-15T00:29:42.784Z,97970.00
2022-11-15T00:29:53.027Z,97972.00
2022-11-15T00:30:03.472Z,97970.00
2022-11-15T00:30:13.509Z,97973.00
2022-11-15T00:30:23.542Z,97968.00
2022-11-15T00:30:33.265Z,97972.00
2022-11-15T00:30:43.513Z,97975.00
2022-11-15T00:30:53.033Z,97972.00
2022-11-15T00:31:03.474Z,97957.00
2022-11-15T00:31:13.515Z,97972.00
2022-11-15T00:31:22.763Z,97970.00
2022-11-15T00:31:34.223Z,97966.00
2022-11-15T00:31:43.006Z,97972.00
2022-11-15T00:31:54.203Z,97970.00
2022-11-15T00:32:04.214Z,97975.00
2022-11-15T00:32:13.690Z,97973.00
2022-11-15T00:32:22.773Z,97972.00
2022-11-15T00:32:34.213Z,97972.00
2022-11-15T00:32:44.239Z,97977.00
2022-11-15T00:32:52.772Z,97975.00
2022-11-15T00:33:04.223Z,97975.00
2022-11-15T00:33:12.755Z,97975.00
2022-11-15T00:33:24.203Z,97975.00
2022-11-15T00:33:33.151Z,97973.00
2022-11-15T00:33:42.754Z,97975.00
2022-11-15T00:33:52.773Z,97975.00
2022-11-15T00:34:04.224Z,97975.00
2022-11-15T00:34:13.707Z,97973.00
2022-11-15T00:34:24.203Z,97973.00
2022-11-15T00:34:34.204Z,97977.00
2022-11-15T00:34:42.743Z,97972.00
2022-11-15T00:34:52.756Z,97975.00
2022-11-15T00:35:04.194Z,97977.00
2022-11-15T00:35:14.184Z,97972.00
2022-11-15T00:35:22.735Z,97973.00
2022-11-15T00:35:34.184Z,97972.00
2022-11-15T00:35:44.174Z,97975.00
2022-11-15T00:35:52.739Z,97977.00
2022-11-15T00:36:02.745Z,97975.00
2022-11-15T00:36:14.184Z,97977.00
2022-11-15T00:36:22.735Z,97975.00
2022-11-15T00:36:32.732Z,97975.00
2022-11-15T00:36:42.734Z,97977.00
2022-11-15T00:36:54.210Z,97975.00
2022-11-15T00:37:04.255Z,97977.00
2022-11-15T00:37:13.718Z,97977.00
2022-11-15T00:37:24.186Z,97973.00
2022-11-15T00:37:34.206Z,97972.00
2022-11-15T00:37:44.176Z,97973.00
2022-11-15T00:37:52.735Z,97970.00
2022-11-15T00:38:02.743Z,97972.00
2022-11-15T00:38:13.235Z,97975.00
2022-11-15T00:38:24.196Z,97972.00
2022-11-15T00:38:32.735Z,97972.00
2022-11-15T00:38:42.826Z,97975.00
2022-11-15T00:38:52.732Z,97973.00
2022-11-15T00:39:02.746Z,97975.00
2022-11-15T00:39:13.540Z,97977.00
2022-11-15T00:39:24.155Z,97975.00
2022-11-15T00:39:32.708Z,97975.00
2022-11-15T00:39:44.166Z,97975.00
2022-11-15T00:39:53.666Z,97972.00
2022-11-15T00:40:04.157Z,97973.00
2022-11-15T00:40:12.695Z,97975.00
2022-11-15T00:40:24.196Z,97973.00
2022-11-15T00:40:34.155Z,97977.00
2022-11-15T00:40:44.158Z,97977.00
2022-11-15T00:40:54.145Z,97973.00
2022-11-15T00:41:06.408Z,97973.00
2022-11-15T00:41:12.723Z,97970.00
2022-11-15T00:41:24.148Z,97975.00
2022-11-15T00:41:32.695Z,97973.00
2022-11-15T00:41:42.696Z,97973.00
2022-11-15T00:41:53.527Z,97977.00
2022-11-15T00:42:03.666Z,97977.00
2022-11-15T00:42:14.145Z,97981.00
2022-11-15T00:42:22.686Z,97979.00
2022-11-15T00:42:33.467Z,97979.00
2022-11-15T00:42:42.955Z,97979.00
2022-11-15T00:42:52.676Z,97979.00
2022-11-15T00:43:02.674Z,97977.00
2022-11-15T00:43:12.703Z,97977.00
2022-11-15T00:43:24.144Z,97981.00
2022-11-15T00:43:33.150Z,97981.00
2022-11-15T00:43:42.708Z,97979.00
2022-11-15T00:43:54.138Z,97979.00
2022-11-15T00:44:03.159Z,97977.00
2022-11-15T00:44:14.115Z,97983.00
2022-11-15T00:44:24.148Z,97979.00
2022-11-15T00:44:32.667Z,97979.00
2022-11-15T00:44:44.137Z,97979.00
2022-11-15T00:44:52.671Z,97981.00
2022-11-15T00:45:02.686Z,97979.00
2022-11-15T00:45:12.696Z,97981.00
2022-11-15T00:45:24.119Z,97981.00
2022-11-15T00:45:32.692Z,97981.00
2022-11-15T00:45:44.132Z,97979.00
2022-11-15T00:45:54.119Z,97979.00
2022-11-15T00:46:04.119Z,97981.00
2022-11-15T00:46:12.668Z,97979.00
2022-11-15T00:46:24.137Z,97981.00
2022-11-15T00:46:34.097Z,97977.00
2022-11-15T00:46:44.117Z,97979.00
2022-11-15T00:46:53.039Z,97979.00
2022-11-15T00:47:04.098Z,97977.00
2022-11-15T00:47:13.315Z,97981.00
2022-11-15T00:47:24.097Z,97979.00
2022-11-15T00:47:34.103Z,97981.00
2022-11-15T00:47:44.127Z,97981.00
2022-11-15T00:47:52.667Z,97977.00
2022-11-15T00:48:03.116Z,97983.00
2022-11-15T00:48:12.948Z,97979.00
2022-11-15T00:48:22.637Z,97979.00
2022-11-15T00:48:33.079Z,97975.00
2022-11-15T00:48:43.326Z,97977.00
2022-11-15T00:48:52.638Z,97979.00
2022-11-15T00:49:03.398Z,97977.00
2022-11-15T00:49:13.428Z,97977.00
2022-11-15T00:49:22.750Z,97975.00
2022-11-15T00:49:34.087Z,97975.00
2022-11-15T00:49:43.436Z,97973.00
2022-11-15T00:49:52.636Z,97977.00
2022-11-15T00:50:04.109Z,97977.00
2022-11-15T00:50:15.324Z,97975.00
2022-11-15T00:50:22.958Z,97975.00
2022-11-15T00:50:34.084Z,97975.00
2022-11-15T00:50:42.638Z,97977.00
2022-11-15T00:50:53.068Z,97977.00
2022-11-15T00:51:02.618Z,97977.00
2022-11-15T00:51:14.088Z,97973.00
2022-11-15T00:51:23.481Z,97975.00
2022-11-15T00:51:32.620Z,97973.00
2022-11-15T00:51:44.071Z,97975.00
2022-11-15T00:51:52.669Z,97975.00
2022-11-15T00:52:02.618Z,97973.00
2022-11-15T00:52:14.079Z,97973.00
2022-11-15T00:52:24.079Z,97975.00
2022-11-15T00:52:32.628Z,97977.00
2022-11-15T00:52:42.840Z,97975.00
2022-11-15T00:52:53.569Z,97975.00
2022-11-15T00:53:04.080Z,97975.00
2022-11-15T00:53:14.059Z,97973.00
2022-11-15T00:53:22.608Z,97973.00
2022-11-15T00:53:34.395Z,97975.00
2022-11-15T00:53:44.069Z,97972.00
2022-11-15T00:53:52.613Z,97972.00
2022-11-15T00:54:04.060Z,97977.00
2022-11-15T00:54:12.616Z,97975.00
2022-11-15T00:54:22.619Z,97975.00
2022-11-15T00:54:33.601Z,97977.00
2022-11-15T00:54:42.618Z,97973.00
2022-11-15T00:54:52.630Z,97973.00
2022-11-15T00:55:04.059Z,97975.00
2022-11-15T00:55:12.660Z,97972.00
2022-11-15T00:55:22.689Z,97973.00
2022-11-15T00:55:32.629Z,97972.00
2022-11-15T00:55:42.656Z,97973.00
2022-11-15T00:55:53.461Z,97975.00
2022-11-15T00:56:04.069Z,97975.00
2022-11-15T00:56:12.794Z,97973.00
2022-11-15T00:56:22.600Z,97975.00
2022-11-15T00:56:32.729Z,97973.00
2022-11-15T00:56:42.580Z,97972.00
2022-11-15T00:56:52.799Z,97973.00
2022-11-15T00:57:02.750Z,97972.00
2022-11-15T00:57:12.780Z,97970.00
2022-11-15T00:57:22.808Z,97970.00
2022-11-15T00:57:32.560Z,97973.00
2022-11-15T00:57:42.607Z,97972.00
2022-11-15T00:57:54.609Z,97973.00
2022-11-15T00:58:04.073Z,97970.00
2022-11-15T00:58:14.033Z,97972.00
2022-11-15T00:58:23.010Z,97972.00
2022-11-15T00:58:32.570Z,97973.00
2022-11-15T00:58:42.680Z,97970.00
2022-11-15T00:58:53.429Z,97972.00
2022-11-15T00:59:02.581Z,97973.00
2022-11-15T00:59:12.887Z,97973.00
2022-11-15T00:59:24.022Z,97973.00
2022-11-15T00:59:33.500Z,97972.00
2022-11-15T00:59:44.010Z,97970.00
2022-11-15T00:59:54.021Z,97972.00
2022-11-15T01:00:02.584Z,97972.00
2022-11-15T01:00:12.640Z,97970.00
2022-11-15T01:00:24.030Z,97972.00
2022-11-15T01:00:34.075Z,97973.00
2022-11-15T01:00:44.065Z,97973.00
2022-11-15T01:00:52.658Z,97972.00
2022-11-15T01:01:02.623Z,97975.00
2022-11-15T01:01:12.627Z,97972.00
2022-11-15T01:01:23.554Z,97973.00
2022-11-15T01:01:34.015Z,97970.00
2022-11-15T01:01:44.042Z,97972.00
2022-11-15T01:01:52.558Z,97970.00
2022-11-15T01:02:02.540Z,97972.00
2022-11-15T01:02:14.001Z,97970.00
2022-11-15T01:02:24.001Z,97970.00
2022-11-15T01:02:34.011Z,97972.00
2022-11-15T01:02:44.002Z,97972.00
2022-11-15T01:02:53.300Z,97970.00
2022-11-15T01:03:04.015Z,97972.00
2022-11-15T01:03:12.541Z,97970.00
2022-11-15T01:03:22.571Z,97972.00
2022-11-15T01:03:32.995Z,97972.00
2022-11-15T01:03:42.571Z,97973.00
2022-11-15T01:03:58.640Z,97973.00
2022-11-15T01:04:04.620Z,97973.00
2022-11-15T01:04:14.451Z,97973.00
2022-11-15T01:04:25.042Z,97972.00
2022-11-15T01:04:35.043Z,97972.00
2022-11-15T01:04:45.035Z,97973.00
2022-11-15T01:04:54.181Z,97973.00
2022-11-15T01:05:05.021Z,97975.00
2022-11-15T01:05:14.154Z,97975.00
2022-11-15T01:05:25.016Z,97979.00
2022-11-15T01:05:34.586Z,97975.00
2022-11-15T01:05:44.161Z,97977.00
2022-11-15T01:05:55.032Z,97973.00
2022-11-15T01:06:05.022Z,97975.00
2022-11-15T01:06:13.572Z,97973.00
2022-11-15T01:06:25.033Z,97972.00
2022-11-15T01:06:35.041Z,97975.00
2022-11-15T01:06:43.671Z,97975.00
2022-11-15T01:06:55.045Z,97973.00
2022-11-15T01:07:05.058Z,97975.00
2022-11-15T01:07:14.096Z,97975.00
2022-11-15T01:07:25.078Z,97977.00
2022-11-15T01:07:35.155Z,97979.00
2022-11-15T01:07:43.591Z,97975.00
2022-11-15T01:07:53.607Z,97977.00
2022-11-15T01:08:03.551Z,97975.00
2022-11-15T01:08:15.013Z,97977.00
2022-11-15T01:08:24.313Z,97977.00
2022-11-15T01:08:34.995Z,97977.00
2022-11-15T01:08:45.011Z,97975.00
2022-11-15T01:08:55.002Z,97977.00
2022-11-15T01:09:04.993Z,97977.00
2022-11-15T01:09:13.559Z,97977.00
2022-11-15T01:09:25.031Z,97977.00
2022-11-15T01:09:34.996Z,97975.00
2022-11-15T01:09:43.553Z,97975.00
2022-11-15T01:09:53.563Z,97977.00
2022-11-15T01:10:04.352Z,97975.00
2022-11-15T01:10:14.391Z,97975.00
2022-11-15T01:10:24.430Z,97977.00
2022-11-15T01:10:33.526Z,97977.00
2022-11-15T01:10:44.392Z,97977.00
2022-11-15T01:10:54.432Z,97975.00
2022-11-15T01:11:03.532Z,97973.00
2022-11-15T01:11:14.393Z,97975.00
2022-11-15T01:11:23.532Z,97975.00
2022-11-15T01:11:35.011Z,97975.00
2022-11-15T01:11:44.515Z,97977.00
2022-11-15T01:11:53.513Z,97975.00
2022-11-15T01:12:03.557Z,97975.00
2022-11-15T01:12:13.503Z,97975.00
2022-11-15T01:12:23.522Z,97973.00
2022-11-15T01:12:34.965Z,97973.00
2022-11-15T01:12:43.592Z,97977.00
2022-11-15T01:12:53.525Z,97973.00
2022-11-15T01:13:03.513Z,97973.00
2022-11-15T01:13:13.504Z,97977.00
2022-11-15T01:13:24.965Z,97973.00
2022-11-15T01:13:33.910Z,97975.00
2022-11-15T01:13:43.603Z,97975.00
2022-11-15T01:13:53.531Z,97977.00
2022-11-15T01:14:03.564Z,97975.00
2022-11-15T01:14:14.943Z,97975.00
2022-11-15T01:14:25.676Z,97975.00
2022-11-15T01:14:33.515Z,97968.00
2022-11-15T01:14:44.973Z,97972.00
2022-11-15T01:14:54.972Z,97973.00
2022-11-15T01:15:04.986Z,97970.00
2022-11-15T01:15:13.560Z,97968.00
2022-11-15T01:15:23.533Z,97966.00
2022-11-15T01:15:33.522Z,97966.00
2022-11-15T01:15:44.964Z,97968.00
2022-11-15T01:15:54.984Z,97968.00
2022-11-15T01:16:03.516Z,97968.00
2022-11-15T01:16:13.533Z,97970.00
2022-11-15T01:16:23.530Z,97968.00
2022-11-15T01:16:33.513Z,97966.00
2022-11-15T01:16:45.052Z,97968.00
2022-11-15T01:16:53.494Z,97970.00
2022-11-15T01:17:03.524Z,97970.00
2022-11-15T01:17:14.963Z,97973.00
2022-11-15T01:17:24.954Z,97970.00
2022-11-15T01:17:33.502Z,97970.00
2022-11-15T01:17:44.955Z,97972.00
2022-11-15T01:17:54.965Z,97954.00
2022-11-15T01:18:03.497Z,97957.00
2022-11-15T01:18:14.934Z,97955.00
2022-11-15T01:18:24.374Z,97955.00
2022-11-15T01:18:34.957Z,97957.00
2022-11-15T01:18:44.939Z,97957.00
2022-11-15T01:18:54.945Z,97957.00
2022-11-15T01:19:04.935Z,97957.00
2022-11-15T01:19:14.967Z,97966.00
2022-11-15T01:19:24.936Z,97957.00
2022-11-15T01:19:33.494Z,97954.00
2022-11-15T01:19:44.944Z,97957.00
2022-11-15T01:19:54.925Z,97957.00
2022-11-15T01:20:04.935Z,97955.00
2022-11-15T01:20:14.955Z,97954.00
2022-11-15T01:20:24.925Z,97955.00
2022-11-15T01:20:33.484Z,97952.00
2022-11-15T01:20:44.945Z,97955.00
2022-11-15T01:20:54.944Z,97954.00
2022-11-15T01:21:03.475Z,97957.00
2022-11-15T01:21:14.937Z,97955.00
2022-11-15T01:21:24.915Z,97955.00
2022-11-15T01:21:34.934Z,97955.00
2022-11-15T01:21:44.416Z,97954.00
2022-11-15T01:21:54.935Z,97955.00
2022-11-15T01:22:03.466Z,97955.00
2022-11-15T01:22:14.923Z,97957.00
2022-11-15T01:22:24.925Z,97966.00
2022-11-15T01:22:34.925Z,97966.00
2022-11-15T01:22:44.916Z,97957.00
2022-11-15T01:22:53.606Z,97957.00
2022-11-15T01:23:04.915Z,97955.00
2022-11-15T01:23:14.925Z,97957.00
2022-11-15T01:23:24.407Z,97957.00
2022-11-15T01:23:35.107Z,97957.00
2022-11-15T01:23:44.906Z,97957.00
2022-11-15T01:23:54.906Z,97957.00
2022-11-15T01:24:04.896Z,97955.00
2022-11-15T01:24:14.411Z,97955.00
2022-11-15T01:24:24.895Z,97955.00
2022-11-15T01:24:33.455Z,97955.00
2022-11-15T01:24:44.928Z,97952.00
2022-11-15T01:24:54.016Z,97955.00
2022-11-15T01:25:04.058Z,97955.00
2022-11-15T01:25:14.885Z,97952.00
2022-11-15T01:25:23.436Z,97950.00
2022-11-15T01:25:33.476Z,97950.00
2022-11-15T01:25:44.436Z,97948.00
2022-11-15T01:25:53.448Z,97948.00
2022-11-15T01:26:04.895Z,97954.00
2022-11-15T01:26:14.903Z,97952.00
2022-11-15T01:26:24.886Z,97950.00
2022-11-15T01:26:33.436Z,97950.00
2022-11-15T01:26:43.446Z,97950.00
2022-11-15T01:26:53.438Z,97950.00
2022-11-15T01:27:03.856Z,97952.00
2022-11-15T01:27:14.865Z,97952.00
2022-11-15T01:27:24.395Z,97954.00
2022-11-15T01:27:34.168Z,97954.00
2022-11-15T01:27:43.417Z,97948.00
2022-11-15T01:27:54.896Z,97948.00
2022-11-15T01:28:04.167Z,97950.00
2022-11-15T01:28:14.366Z,97948.00
2022-11-15T01:28:24.876Z,97950.00
2022-11-15T01:28:33.458Z,97954.00
2022-11-15T01:28:44.409Z,97950.00
2022-11-15T01:28:54.876Z,97950.00
2022-11-15T01:29:04.857Z,97950.00
2022-11-15T01:29:14.385Z,97952.00
2022-11-15T01:29:24.868Z,97950.00
2022-11-15T01:29:34.900Z,97950.00
2022-11-15T01:29:43.416Z,97952.00
2022-11-15T01:29:54.879Z,97950.00
2022-11-15T01:30:03.416Z,97948.00
2022-11-15T01:30:13.426Z,97948.00
2022-11-15T01:30:24.856Z,97948.00
2022-11-15T01:30:33.405Z,97950.00
2022-11-15T01:30:43.404Z,97946.00
2022-11-15T01:30:54.848Z,97948.00
2022-11-15T01:31:03.407Z,97948.00
2022-11-15T01:31:14.166Z,97948.00
2022-11-15T01:31:24.868Z,97950.00
2022-11-15T01:31:33.417Z,97946.00
2022-11-15T01:31:43.406Z,97944.00
2022-11-15T01:31:54.867Z,97946.00
2022-11-15T01:32:03.412Z,97948.00
2022-11-15T01:32:14.327Z,97948.00
2022-11-15T01:32:24.848Z,97946.00
2022-11-15T01:32:34.847Z,97946.00
2022-11-15T01:32:44.848Z,97946.00
2022-11-15T01:32:54.849Z,97948.00
2022-11-15T01:33:04.837Z,97948.00
2022-11-15T01:33:14.877Z,97948.00
2022-11-15T01:33:23.458Z,97948.00
2022-11-15T01:33:34.840Z,97946.00
2022-11-15T01:33:44.828Z,97944.00
2022-11-15T01:33:53.427Z,97946.00
2022-11-15T01:34:03.397Z,97946.00
2022-11-15T01:34:14.839Z,97944.00
2022-11-15T01:34:23.377Z,97944.00
2022-11-15T01:34:33.434Z,97946.00
2022-11-15T01:34:44.338Z,97946.00
2022-11-15T01:34:54.838Z,97944.00
2022-11-15T01:35:03.367Z,97944.00
2022-11-15T01:35:13.396Z,97946.00
2022-11-15T01:35:23.400Z,97942.00
2022-11-15T01:35:33.365Z,97944.00
2022-11-15T01:35:43.649Z,97944.00
2022-11-15T01:35:54.808Z,97942.00
2022-11-15T01:36:04.209Z,97944.00
2022-11-15T01:36:14.824Z,97944.00
2022-11-15T01:36:23.681Z,97942.00
2022-11-15T01:36:34.813Z,97948.00
2022-11-15T01:36:44.148Z,97942.00
2022-11-15T01:36:54.825Z,97944.00
2022-11-15T01:37:03.398Z,97942.00
2022-11-15T01:37:13.367Z,97946.00
2022-11-15T01:37:23.368Z,97944.00
2022-11-15T01:37:33.730Z,97944.00
2022-11-15T01:37:44.388Z,97944.00
2022-11-15T01:37:54.809Z,97944.00
2022-11-15T01:38:03.349Z,97944.00
2022-11-15T01:38:13.386Z,97944.00
2022-11-15T01:38:24.800Z,97938.00
2022-11-15T01:38:33.359Z,97940.00
2022-11-15T01:38:43.371Z,97936.00
2022-11-15T01:38:54.830Z,97938.00
2022-11-15T01:39:03.359Z,97940.00
2022-11-15T01:39:13.359Z,97938.00
2022-11-15T01:39:24.809Z,97942.00
2022-11-15T01:39:33.328Z,97940.00
2022-11-15T01:39:43.781Z,97938.00
2022-11-15T01:39:53.329Z,97938.00
2022-11-15T01:40:03.349Z,97940.00
2022-11-15T01:40:13.338Z,97936.00
2022-11-15T01:40:23.811Z,97936.00
2022-11-15T01:40:33.329Z,97936.00
2022-11-15T01:40:43.889Z,97936.00
2022-11-15T01:40:53.339Z,97940.00
2022-11-15T01:41:03.811Z,97938.00
2022-11-15T01:41:13.969Z,97938.00
2022-11-15T01:41:23.340Z,97940.00
2022-11-15T01:41:34.769Z,97940.00
2022-11-15T01:41:43.314Z,97936.00
2022-11-15T01:41:53.310Z,97938.00
2022-11-15T01:42:03.355Z,97936.00
2022-11-15T01:42:14.768Z,97938.00
2022-11-15T01:42:23.309Z,97936.00
2022-11-15T01:42:33.355Z,97936.00
2022-11-15T01:42:43.290Z,97936.00
2022-11-15T01:42:53.323Z,97936.00
2022-11-15T01:43:03.349Z,97936.00
2022-11-15T01:43:14.291Z,97934.00
2022-11-15T01:43:24.759Z,97934.00
2022-11-15T01:43:33.663Z,97940.00
2022-11-15T01:43:44.240Z,97938.00
2022-11-15T01:43:53.341Z,97938.00
2022-11-15T01:44:03.366Z,97938.00
2022-11-15T01:44:14.751Z,97936.00
2022-11-15T01:44:24.280Z,97936.00
2022-11-15T01:44:34.762Z,97936.00
2022-11-15T01:44:43.318Z,97936.00
2022-11-15T01:44:54.131Z,97934.00
2022-11-15T01:45:03.300Z,97932.00
2022-11-15T01:45:13.338Z,97936.00
2022-11-15T01:45:23.310Z,97930.00
2022-11-15T01:45:33.383Z,97934.00
2022-11-15T01:45:43.305Z,97932.00
2022-11-15T01:45:54.290Z,97932.00
2022-11-15T01:46:03.309Z,97936.00
2022-11-15T01:46:14.760Z,97936.00
2022-11-15T01:46:23.313Z,97936.00
2022-11-15T01:46:34.751Z,97936.00
2022-11-15T01:46:43.463Z,97934.00
2022-11-15T01:46:53.271Z,97936.00
2022-11-15T01:47:03.302Z,97936.00
2022-11-15T01:47:13.442Z,97934.00
2022-11-15T01:47:23.282Z,97938.00
2022-11-15T01:47:34.732Z,97934.00
2022-11-15T01:47:43.791Z,97936.00
2022-11-15T01:47:53.269Z,97936.00
2022-11-15T01:48:03.389Z,97936.00
2022-11-15T01:48:14.078Z,97938.00
2022-11-15T01:48:23.281Z,97934.00
2022-11-15T01:48:33.296Z,97938.00
2022-11-15T01:48:44.731Z,97936.00
2022-11-15T01:48:54.231Z,97936.00
2022-11-15T01:49:04.780Z,97940.00
2022-11-15T01:49:13.273Z,97940.00
2022-11-15T01:49:23.292Z,97942.00
2022-11-15T01:49:34.721Z,97942.00
2022-11-15T01:49:44.721Z,97944.00
2022-11-15T01:49:54.736Z,97946.00
2022-11-15T01:50:03.640Z,97946.00
2022-11-15T01:50:13.289Z,97942.00
2022-11-15T01:50:24.721Z,97944.00
2022-11-15T01:50:33.276Z,97946.00
2022-11-15T01:50:43.261Z,97946.00
2022-11-15T01:50:53.271Z,97948.00
2022-11-15T01:51:03.262Z,97950.00
2022-11-15T01:51:13.251Z,97950.00
2022-11-15T01:51:23.389Z,97948.00
2022-11-15T01:51:34.693Z,97950.00
2022-11-15T01:51:44.703Z,97948.00
2022-11-15T01:51:54.732Z,97948.00
2022-11-15T01:52:03.244Z,97952.00
2022-11-15T01:52:13.278Z,97944.00
2022-11-15T01:52:23.265Z,97946.00
2022-11-15T01:52:34.703Z,97948.00
2022-11-15T01:52:44.713Z,97946.00
2022-11-15T01:52:54.694Z,97946.00
2022-11-15T01:53:04.702Z,97946.00
2022-11-15T01:53:14.702Z,97948.00
2022-11-15T01:53:24.691Z,97946.00
2022-11-15T01:53:34.863Z,97948.00
2022-11-15T01:53:44.676Z,97948.00
2022-11-15T01:53:54.693Z,97950.00
2022-11-15T01:54:04.672Z,97946.00
2022-11-15T01:54:14.675Z,97948.00
2022-11-15T01:54:24.693Z,97944.00
2022-11-15T01:54:33.462Z,97946.00
2022-11-15T01:54:44.672Z,97946.00
2022-11-15T01:54:54.689Z,97944.00
2022-11-15T01:55:04.685Z,97946.00
2022-11-15T01:55:13.750Z,97946.00
2022-11-15T01:55:24.672Z,97946.00
2022-11-15T01:55:33.233Z,97942.00
2022-11-15T01:55:44.683Z,97944.00
2022-11-15T01:55:54.673Z,97942.00
2022-11-15T01:56:03.220Z,97946.00
2022-11-15T01:56:14.692Z,97946.00
2022-11-15T01:56:24.673Z,97946.00
2022-11-15T01:56:34.713Z,97944.00
2022-11-15T01:56:43.213Z,97946.00
2022-11-15T01:56:54.684Z,97946.00
2022-11-15T01:57:04.662Z,97944.00
2022-11-15T01:57:14.663Z,97946.00
2022-11-15T01:57:23.203Z,97948.00
2022-11-15T01:57:34.664Z,97948.00